Time;durP1;ratioP1;P1;durP2;ratioP2;P2;SDS_P1;SDS_P2;PMS_P1;PMS_P2;Temp;Humidity;BMP_temperature;BMP_pressure;BME280_temperature;BME280_humidity;BME280_pressure;Samples;Min_cycle;Max_cycle;Signal;HPM_P1;HPM_P2
2022/12/06 08:22:11;;;;;;;8.98;6.90;;;;;;;17.54;40.21;101714.66;5113153;27;20349;-45
2022/12/06 08:24:38;;;;;;;8.50;6.40;;;;;;;18.64;37.89;101707.09;5106353;28;20053;-46
2022/12/06 08:27:05;;;;;;;7.93;5.75;;;;;;;19.43;36.15;101701.97;5107219;28;20504;-45
2022/12/06 08:29:33;;;;;;;8.35;5.97;;;;;;;20.03;35.13;101703.63;5106498;28;20059;-49
2022/12/06 08:32:00;;;;;;;8.38;6.05;;;;;;;20.45;34.20;101708.81;5106482;28;20070;-45
2022/12/06 08:34:27;;;;;;;8.70;5.90;;;;;;;20.73;33.56;101717.72;5106043;28;20459;-46
2022/12/06 08:36:54;;;;;;;12.68;5.95;;;;;;;20.95;33.06;101715.97;5106784;28;20036;-47
2022/12/06 08:39:24;;;;;;;8.43;5.93;;;;;;;21.12;32.89;101711.38;5079254;28;20489;-46
2022/12/06 08:41:56;;;;;;;9.27;5.75;;;;;;;21.20;32.75;101714.25;5085712;28;20040;-47
2022/12/06 08:44:26;;;;;;;7.43;5.32;;;;;;;21.30;32.68;101710.25;5086171;28;20055;-47
2022/12/06 08:46:54;;;;;;;8.00;4.97;;;;;;;21.34;32.60;101713.06;5109984;28;20464;-45
2022/12/06 08:49:24;;;;;;;8.98;5.47;;;;;;;21.43;32.25;101716.81;5110203;28;20103;-45
2022/12/06 08:51:53;;;;;;;10.75;5.22;;;;;;;21.47;32.21;101706.53;5091916;28;20377;-45
2022/12/06 08:54:23;;;;;;;7.55;4.28;;;;;;;21.50;32.20;101703.16;5109851;28;20034;-47
2022/12/06 08:56:53;;;;;;;5.88;4.55;;;;;;;21.52;32.27;101706.69;5109691;28;20046;-45
2022/12/06 08:59:22;;;;;;;8.70;5.53;;;;;;;21.57;32.07;101712.09;5109857;28;20078;-47
2022/12/06 09:01:50;;;;;;;7.70;5.63;;;;;;;21.61;31.92;101709.66;5110168;28;20093;-47
2022/12/06 09:04:19;;;;;;;7.18;5.18;;;;;;;21.73;31.97;101718.75;5109781;28;20048;-46
2022/12/06 09:06:47;;;;;;;6.82;5.28;;;;;;;21.75;31.51;101725.81;5110296;28;20059;-47
2022/12/06 09:09:17;;;;;;;5.88;4.45;;;;;;;21.78;31.75;101719.81;5109874;28;20055;-48
2022/12/06 09:11:48;;;;;;;10.80;4.88;;;;;;;21.76;31.88;101726.69;5109784;28;20063;-45
2022/12/06 09:14:18;;;;;;;9.88;4.45;;;;;;;21.79;31.63;101725.06;5091919;28;20046;-48
2022/12/06 09:16:46;;;;;;;6.88;4.88;;;;;;;21.87;31.61;101732.28;5110030;28;20026;-48
2022/12/06 09:19:15;;;;;;;6.95;4.30;;;;;;;21.88;31.67;101723.63;5109620;28;20038;-47
2022/12/06 09:21:45;;;;;;;6.55;4.03;;;;;;;21.94;31.39;101729.03;5109446;28;20478;-52
2022/12/06 09:24:15;;;;;;;5.57;4.38;;;;;;;21.99;31.57;101724.88;5109169;28;20031;-47
2022/12/06 09:26:44;;;;;;;6.57;4.70;;;;;;;22.04;31.47;101727.63;5109457;28;20035;-48
2022/12/06 09:29:13;;;;;;;7.20;4.35;;;;;;;22.05;31.57;101726.78;5091348;28;20024;-46
2022/12/06 09:31:41;;;;;;;7.75;4.40;;;;;;;22.05;31.23;101727.69;5105575;28;20039;-48
2022/12/06 09:34:10;;;;;;;6.85;4.22;;;;;;;22.10;30.97;101733.06;5096046;28;20113;-47
2022/12/06 09:36:43;;;;;;;6.22;4.30;;;;;;;22.12;31.34;101732.25;5077805;28;20020;-51
2022/12/06 09:39:15;;;;;;;5.60;4.05;;;;;;;22.09;31.33;101732.16;5078261;28;20060;-46
2022/12/06 09:42:10;;;;;;;5.32;4.22;;;;;;;22.10;31.17;101730.44;5095583;28;20035;-51
2022/12/06 09:44:58;;;;;;;5.57;3.80;;;;;;;22.12;31.09;101739.22;5091247;28;20036;-48
2022/12/06 09:47:54;;;;;;;7.65;4.57;;;;;;;22.13;31.38;101744.50;5088861;28;20404;-49
2022/12/06 09:50:48;;;;;;;5.80;4.10;;;;;;;22.19;31.16;101746.41;5073524;28;20050;-48
2022/12/06 09:53:27;;;;;;;6.50;4.07;;;;;;;22.20;30.97;101750.81;5095676;28;20028;-48
2022/12/06 09:56:17;;;;;;;5.50;3.90;;;;;;;22.24;31.07;101750.09;5078332;28;20052;-46
2022/12/06 09:58:56;;;;;;;6.55;4.43;;;;;;;22.26;30.84;101751.03;5088498;28;20490;-51
2022/12/06 10:01:34;;;;;;;4.90;4.03;;;;;;;22.29;30.95;101752.84;5077194;28;20032;-46
2022/12/06 10:04:21;;;;;;;5.40;3.78;;;;;;;22.37;30.52;101753.09;5095869;28;20020;-51
2022/12/06 10:06:59;;;;;;;7.22;3.85;;;;;;;22.28;31.00;101759.81;5095534;28;20445;-47
2022/12/06 10:09:47;;;;;;;9.38;4.00;;;;;;;22.33;30.67;101769.53;5094646;28;20430;-46
2022/12/06 10:12:34;;;;;;;5.18;4.00;;;;;;;22.30;30.91;101763.34;5071184;28;20127;-46
2022/12/06 10:15:25;;;;;;;4.53;3.47;;;;;;;22.23;31.02;101766.59;5088404;28;20067;-46
2022/12/06 10:18:12;;;;;;;4.97;3.55;;;;;;;22.27;30.75;101773.72;5071304;28;20066;-48
2022/12/06 10:21:06;;;;;;;3.83;3.00;;;;;;;22.24;30.92;101768.38;5087918;28;20043;-48
2022/12/06 10:23:42;;;;;;;5.25;3.80;;;;;;;22.24;31.07;101768.38;5072746;28;20123;-46
2022/12/06 10:26:17;;;;;;;5.35;3.55;;;;;;;22.24;30.81;101763.16;5076969;28;20034;-47
2022/12/06 10:28:48;;;;;;;4.20;3.40;;;;;;;22.24;30.92;101767.50;5094775;28;20028;-48
2022/12/06 10:31:22;;;;;;;5.85;3.67;;;;;;;22.23;30.54;101761.38;5095188;28;20028;-46
2022/12/06 10:33:57;;;;;;;4.38;3.28;;;;;;;22.24;30.69;101770.13;5094772;28;20024;-46
2022/12/06 10:36:48;;;;;;;5.15;3.40;;;;;;;22.23;31.07;101776.19;5076886;28;20031;-48
2022/12/06 10:39:21;;;;;;;4.88;3.10;;;;;;;22.24;30.82;101775.34;5054975;28;20397;-47
2022/12/06 10:42:04;;;;;;;4.20;3.40;;;;;;;22.20;30.70;101763.00;5094337;28;20054;-47
2022/12/06 10:44:41;;;;;;;5.05;3.10;;;;;;;22.26;30.69;101764.09;5075596;28;20074;-47
2022/12/06 10:47:16;;;;;;;4.28;3.28;;;;;;;22.22;30.80;101764.81;5076371;28;20024;-47
2022/12/06 10:50:07;;;;;;;4.45;3.42;;;;;;;22.23;30.82;101769.22;5076665;28;20016;-48
2022/12/06 10:52:56;;;;;;;4.72;3.30;;;;;;;22.20;30.70;101765.63;5089002;28;20063;-46
2022/12/06 10:55:30;;;;;;;4.28;3.10;;;;;;;22.19;30.56;101766.44;5070578;28;20604;-45
2022/12/06 10:58:12;;;;;;;3.67;3.13;;;;;;;22.15;30.90;101758.50;5076079;28;20020;-48
2022/12/06 11:00:54;;;;;;;4.43;3.33;;;;;;;22.17;30.68;101761.19;5075833;28;20655;-45
2022/12/06 11:03:25;;;;;;;3.60;2.83;;;;;;;22.16;30.84;101759.41;5076337;28;20039;-45
2022/12/06 11:05:59;;;;;;;4.38;3.10;;;;;;;22.13;30.95;101764.53;5094271;28;20023;-45
2022/12/06 11:08:38;;;;;;;3.80;3.05;;;;;;;22.09;30.68;101755.66;5094315;28;20381;-47
2022/12/06 11:11:31;;;;;;;4.13;2.90;;;;;;;22.09;30.89;101758.28;5093973;28;20048;-45
2022/12/06 11:14:04;;;;;;;3.67;2.78;;;;;;;22.13;30.91;101748.84;5076128;28;20485;-45
2022/12/06 11:16:52;;;;;;;3.75;3.00;;;;;;;22.11;30.51;101745.28;5075687;28;20081;-45
2022/12/06 11:19:35;;;;;;;3.88;3.20;;;;;;;22.10;30.52;101739.16;5076009;28;20023;-48
2022/12/06 11:22:30;;;;;;;3.95;2.95;;;;;;;22.09;30.63;101734.78;5093807;28;20044;-46
2022/12/06 11:25:20;;;;;;;4.75;3.65;;;;;;;22.09;30.36;101723.44;5090251;28;20035;-46
2022/12/06 11:27:54;;;;;;;4.22;3.38;;;;;;;22.09;30.89;101731.28;5089887;28;20036;-45
2022/12/06 11:30:23;;;;;;;4.07;3.08;;;;;;;22.09;30.69;101731.28;5094028;28;20084;-45
2022/12/06 11:32:52;;;;;;;4.75;3.55;;;;;;;22.07;30.42;101728.63;5093779;28;20188;-47
2022/12/06 11:35:23;;;;;;;4.45;3.38;;;;;;;22.08;30.68;101738.25;5093112;28;20024;-47
2022/12/06 11:37:58;;;;;;;5.10;3.78;;;;;;;22.05;30.48;101726.78;5093138;28;20461;-48
2022/12/06 11:40:29;;;;;;;5.47;4.18;;;;;;;21.97;30.69;101719.59;5075051;28;20405;-46
2022/12/06 11:43:00;;;;;;;7.65;5.47;;;;;;;21.99;30.45;101730.09;5093488;28;20024;-45
2022/12/06 11:45:33;;;;;;;19.45;13.52;;;;;;;21.99;30.49;101725.75;5093784;28;20024;-46
2022/12/06 11:48:11;;;;;;;20.63;12.90;;;;;;;21.97;30.46;101730.03;5093571;28;20024;-46
2022/12/06 11:50:40;;;;;;;23.90;13.73;;;;;;;22.06;30.52;101731.19;5075696;28;20028;-45
2022/12/06 11:53:33;;;;;;;21.42;14.50;;;;;;;22.15;30.36;101727.16;5075040;28;20030;-47
2022/12/06 11:56:10;;;;;;;21.63;14.50;;;;;;;22.05;30.20;101730.31;5092471;28;20032;-45
2022/12/06 11:58:44;;;;;;;22.02;13.20;;;;;;;22.08;30.37;101727.78;5075430;28;20031;-44
2022/12/06 12:01:13;;;;;;;21.67;13.27;;;;;;;22.06;30.05;101732.09;5074833;28;20070;-45
2022/12/06 12:03:44;;;;;;;24.27;12.95;;;;;;;22.05;30.32;101724.19;5093307;28;20020;-46
2022/12/06 12:06:31;;;;;;;17.65;11.57;;;;;;;21.93;30.36;101730.78;5093016;28;20113;-45
2022/12/06 12:09:04;;;;;;;18.50;12.02;;;;;;;21.93;30.59;101722.94;5074571;28;20020;-45
2022/12/06 12:11:36;;;;;;;15.88;10.85;;;;;;;21.96;30.58;101719.53;5075232;28;20016;-45
2022/12/06 12:14:17;;;;;;;19.35;12.32;;;;;;;21.92;30.41;101710.72;5092932;28;20024;-46
2022/12/06 12:16:49;;;;;;;29.73;21.75;;;;;;;21.97;30.60;101719.59;5093162;28;20111;-46
2022/12/06 12:19:39;;;;;;;38.20;26.60;;;;;;;21.95;30.62;101715.13;5093683;28;20016;-45
2022/12/06 12:22:21;;;;;;;34.33;25.70;;;;;;;21.95;30.31;101710.81;5066894;28;20103;-47
2022/12/06 12:24:51;;;;;;;31.50;23.50;;;;;;;21.89;30.86;101696.66;5071587;28;20028;-45
2022/12/06 12:27:33;;;;;;;32.53;23.60;;;;;;;21.89;30.64;101700.16;5072472;28;20032;-47
2022/12/06 12:30:25;;;;;;;34.22;22.55;;;;;;;21.90;30.68;101701.06;5072916;28;20048;-46
2022/12/06 12:33:13;;;;;;;28.73;21.30;;;;;;;21.98;30.46;101697.88;5072768;28;20366;-46
2022/12/06 12:35:43;;;;;;;31.10;20.17;;;;;;;22.00;30.79;101690.97;5071407;28;20052;-45
2022/12/06 12:38:14;;;;;;;27.40;20.08;;;;;;;21.97;30.66;101688.25;5072920;28;20024;-45
2022/12/06 12:40:45;;;;;;;25.15;18.67;;;;;;;21.91;30.86;101677.59;5072741;28;20439;-48
2022/12/06 12:43:23;;;;;;;22.83;17.48;;;;;;;21.93;30.92;101675.91;5071800;28;20028;-48
2022/12/06 12:46:11;;;;;;;23.95;17.88;;;;;;;21.90;31.12;101681.03;5071343;28;20021;-45
2022/12/06 12:48:41;;;;;;;23.02;17.00;;;;;;;22.00;30.89;101685.75;5072697;28;20036;-46
2022/12/06 12:51:31;;;;;;;24.05;15.60;;;;;;;21.91;31.17;101680.19;5072816;28;20020;-47
2022/12/06 12:54:03;;;;;;;20.58;14.93;;;;;;;21.91;31.18;101677.59;5072801;28;20024;-47
2022/12/06 12:56:35;;;;;;;16.67;13.23;;;;;;;21.90;31.52;101677.56;5072571;28;20035;-45
2022/12/06 12:59:14;;;;;;;17.38;13.70;;;;;;;21.90;31.46;101681.03;5072995;28;20535;-50
2022/12/06 13:01:50;;;;;;;21.45;13.90;;;;;;;21.94;31.65;101682.91;5072441;28;20033;-47
2022/12/06 13:04:27;;;;;;;18.23;12.57;;;;;;;21.97;31.53;101685.63;5071144;28;20032;-50
2022/12/06 13:07:00;;;;;;;20.35;12.27;;;;;;;21.98;31.74;101682.19;5073131;28;20025;-45
2022/12/06 13:09:51;;;;;;;17.02;11.40;;;;;;;22.04;31.82;101685.81;5074996;28;20032;-51
2022/12/06 13:12:32;;;;;;;17.50;11.95;;;;;;;22.04;31.76;101691.03;5071893;28;20036;-46
2022/12/06 13:15:21;;;;;;;16.42;10.70;;;;;;;22.08;31.67;101692.94;5076213;28;20116;-47
2022/12/06 13:17:54;;;;;;;16.27;11.02;;;;;;;22.07;31.99;101685.91;5072211;28;20032;-47
2022/12/06 13:20:29;;;;;;;16.08;11.15;;;;;;;22.11;31.95;101687.81;5074903;28;20493;-48
2022/12/06 13:23:01;;;;;;;13.50;10.40;;;;;;;22.24;31.97;101679.50;5075991;28;20462;-46
2022/12/06 13:25:30;;;;;;;13.88;10.35;;;;;;;22.23;32.00;101690.81;5076340;28;20330;-46
2022/12/06 13:28:01;;;;;;;12.50;9.65;;;;;;;22.27;32.20;101691.78;5075689;28;20081;-46
2022/12/06 13:30:30;;;;;;;13.95;8.50;;;;;;;22.32;31.87;101687.59;5075835;28;20029;-47
2022/12/06 13:33:03;;;;;;;10.95;8.45;;;;;;;22.29;31.91;101693.63;5074455;28;20222;-47
2022/12/06 13:35:36;;;;;;;12.32;8.80;;;;;;;22.26;31.88;101690.91;5075726;28;20029;-50
2022/12/06 13:38:23;;;;;;;11.25;7.97;;;;;;;22.21;32.48;101694.22;5075573;28;20020;-49
2022/12/06 13:40:53;;;;;;;10.05;7.47;;;;;;;22.29;32.29;101687.50;5075298;28;20043;-46
2022/12/06 13:43:24;;;;;;;15.30;8.02;;;;;;;22.27;31.97;101689.16;5075317;28;20032;-49
2022/12/06 13:45:55;;;;;;;12.07;6.70;;;;;;;22.33;32.40;101691.13;5075142;28;20029;-46
2022/12/06 13:48:26;;;;;;;9.88;6.82;;;;;;;22.29;32.50;101683.16;5075558;28;20393;-50
2022/12/06 13:50:58;;;;;;;9.07;6.68;;;;;;;22.29;32.30;101684.88;5074913;28;20101;-46
2022/12/06 13:53:32;;;;;;;9.32;6.15;;;;;;;22.34;32.49;101677.22;5075571;28;20396;-50
2022/12/06 13:56:04;;;;;;;9.55;6.45;;;;;;;22.33;32.54;101675.44;5075605;28;20465;-45
2022/12/06 13:58:32;;;;;;;10.35;6.05;;;;;;;22.37;32.30;101664.19;5073886;28;20083;-49
2022/12/06 14:01:01;;;;;;;8.85;5.93;;;;;;;22.41;32.31;101661.75;5075040;28;20488;-49
2022/12/06 14:03:29;;;;;;;8.90;5.90;;;;;;;22.42;32.41;101668.75;5074110;28;20097;-46
2022/12/06 14:05:57;;;;;;;9.38;5.85;;;;;;;22.51;32.34;101655.09;5075130;28;20556;-49
2022/12/06 14:08:36;;;;;;;7.78;5.45;;;;;;;22.51;32.12;101651.59;5068831;28;20036;-45
2022/12/06 14:11:27;;;;;;;8.38;5.60;;;;;;;22.56;32.29;101658.72;5060155;28;20075;-46
2022/12/06 14:13:57;;;;;;;7.18;5.40;;;;;;;22.56;31.98;101653.50;5052291;28;20033;-49
2022/12/06 14:16:37;;;;;;;7.50;5.25;;;;;;;22.59;31.97;101650.97;5054755;28;20045;-45
2022/12/06 14:19:21;;;;;;;11.27;5.00;;;;;;;22.54;32.15;101654.31;5060406;28;20032;-47
2022/12/06 14:21:59;;;;;;;10.25;5.13;;;;;;;22.59;32.26;101657.94;5078361;28;20493;-47
2022/12/06 14:24:39;;;;;;;8.27;5.15;;;;;;;22.65;31.93;101655.50;5074518;28;20036;-45
2022/12/06 14:27:14;;;;;;;7.63;5.15;;;;;;;22.68;32.23;101649.47;5083728;28;20389;-51
2022/12/06 14:29:43;;;;;;;9.00;5.35;;;;;;;22.69;32.11;101646.00;5080551;28;20024;-46
2022/12/06 14:32:12;;;;;;;6.93;5.10;;;;;;;22.70;31.89;101648.69;5087947;28;20036;-46
2022/12/06 14:34:40;;;;;;;8.77;4.88;;;;;;;22.74;32.01;101641.81;5081945;28;20474;-63
2022/12/06 14:37:19;;;;;;;9.05;4.82;;;;;;;22.73;31.99;101653.13;5081260;28;20477;-47
2022/12/06 14:39:52;;;;;;;8.40;4.50;;;;;;;22.74;32.04;101652.28;5069733;28;20051;-48
2022/12/06 14:43:03;;;;;;;7.32;4.78;;;;;;;22.81;31.63;101645.50;5086126;28;20107;-48
2022/12/06 14:45:13;;;;;;;9.50;4.90;;;;;;;22.81;32.06;101648.09;5072640;28;20074;-48
2022/12/06 14:47:42;;;;;;;7.20;3.97;;;;;;;22.86;31.96;101649.13;5055547;28;20034;-47
2022/12/06 14:50:43;;;;;;;12.13;4.28;;;;;;;22.88;31.78;101655.28;5056156;28;20086;-46
2022/12/06 14:53:12;;;;;;;11.23;4.35;;;;;;;22.89;31.60;101657.94;5075839;28;20052;-46
2022/12/06 14:56:01;;;;;;;8.57;4.00;;;;;;;22.95;31.68;101664.22;5066202;28;20020;-46
2022/12/06 14:58:34;;;;;;;10.45;3.50;;;;;;;22.96;31.14;101666.84;5072718;28;20059;-46
2022/12/06 15:01:05;;;;;;;8.63;4.18;;;;;;;22.97;31.35;101667.75;5067097;28;20056;-46
2022/12/06 15:03:38;;;;;;;5.50;3.95;;;;;;;23.00;31.16;101670.47;5075657;28;20055;-46
2022/12/06 15:06:15;;;;;;;4.57;3.42;;;;;;;23.00;30.90;101667.84;5093604;28;20024;-47
2022/12/06 15:08:46;;;;;;;6.95;3.40;;;;;;;23.02;31.12;101673.97;5090189;28;20023;-46
2022/12/06 15:12:54;;;;;;;6.35;3.47;;;;;;;23.02;30.89;101680.13;5054680;28;20029;-45
2022/12/06 15:14:23;;;;;;;5.22;3.55;;;;;;;23.00;31.22;101688.78;5072761;28;20035;-47
2022/12/06 15:17:02;;;;;;;4.63;3.40;;;;;;;22.97;31.05;101693.91;5073179;28;20046;-47
2022/12/06 15:19:34;;;;;;;4.80;3.03;;;;;;;23.02;30.94;101695.81;5058724;28;20074;-46
2022/12/06 15:22:03;;;;;;;4.70;3.17;;;;;;;23.04;30.74;101688.91;5072435;28;20473;-45
2022/12/06 15:24:32;;;;;;;4.82;3.30;;;;;;;23.02;30.89;101694.91;5055573;28;20031;-48
2022/12/06 15:27:00;;;;;;;3.97;2.88;;;;;;;23.02;30.85;101701.06;5076052;28;20030;-45
2022/12/06 15:29:28;;;;;;;4.10;2.13;;;;;;;23.01;30.48;101706.22;5071641;28;20108;-46
2022/12/06 15:31:57;;;;;;;4.60;2.95;;;;;;;22.99;30.74;101708.81;5076452;28;20072;-46
2022/12/06 15:34:29;;;;;;;5.80;3.03;;;;;;;23.02;30.54;101705.38;5073063;28;20105;-47
2022/12/06 15:36:58;;;;;;;4.82;3.00;;;;;;;23.05;30.41;101705.47;5076120;28;20039;-44
2022/12/06 15:39:27;;;;;;;4.05;2.75;;;;;;;23.02;30.20;101711.53;5072348;28;20059;-47
2022/12/06 15:41:56;;;;;;;7.15;2.70;;;;;;;23.05;30.67;101710.72;5072265;28;20064;-46
2022/12/06 15:44:26;;;;;;;2.72;2.42;;;;;;;23.04;30.31;101707.22;5072534;28;20094;-48
2022/12/06 15:46:55;;;;;;;3.08;2.30;;;;;;;23.03;30.14;101708.06;5072460;28;20022;-49
2022/12/06 15:49:25;;;;;;;3.28;2.58;;;;;;;23.00;30.38;101705.34;5071698;28;20035;-47
2022/12/06 15:51:52;;;;;;;3.97;2.45;;;;;;;23.00;30.25;101705.34;5071933;28;20032;-47
2022/12/06 15:54:23;;;;;;;4.47;2.72;;;;;;;22.95;30.22;101706.06;5072598;28;20338;-47
2022/12/06 15:56:53;;;;;;;4.22;2.70;;;;;;;22.96;30.41;101702.63;5072245;28;20099;-48
2022/12/06 15:59:21;;;;;;;4.70;2.53;;;;;;;23.01;30.47;101706.22;5053258;28;20724;-47
2022/12/06 16:01:50;;;;;;;5.05;2.42;;;;;;;22.98;30.27;101703.53;5071828;28;20033;-48
2022/12/06 16:04:21;;;;;;;6.32;3.25;;;;;;;23.01;30.49;101701.91;5071855;28;20108;-51
2022/12/06 16:06:50;;;;;;;4.72;3.17;;;;;;;23.02;30.40;101702.75;5072434;28;20060;-48
2022/12/06 16:09:20;;;;;;;3.70;2.80;;;;;;;22.99;30.43;101695.72;5073889;28;20424;-48
2022/12/06 16:11:49;;;;;;;4.43;2.83;;;;;;;22.99;30.03;101700.97;5073308;28;20029;-50
2022/12/06 16:14:18;;;;;;;3.40;2.55;;;;;;;23.00;30.57;101692.28;5071159;28;20029;-52
2022/12/06 16:16:47;;;;;;;4.47;2.95;;;;;;;22.96;30.13;101700.88;5072000;28;20028;-46
2022/12/06 16:19:15;;;;;;;3.13;2.47;;;;;;;22.95;30.42;101693.00;5071484;28;20115;-49
2022/12/06 16:21:55;;;;;;;6.15;2.67;;;;;;;22.93;30.54;101695.53;5071824;28;20131;-47
2022/12/06 16:24:23;;;;;;;3.63;2.42;;;;;;;22.95;30.45;101693.00;5071497;28;20059;-49
2022/12/06 16:26:52;;;;;;;5.32;2.33;;;;;;;22.99;30.12;101690.50;5054017;28;20020;-49
2022/12/06 16:29:23;;;;;;;5.05;3.15;;;;;;;23.00;30.42;101700.13;5073930;28;20060;-47
2022/12/06 16:31:52;;;;;;;4.18;2.42;;;;;;;23.03;30.29;101696.69;5072557;28;20033;-47
2022/12/06 16:34:21;;;;;;;4.45;2.38;;;;;;;23.02;30.37;101698.44;5071431;28;20035;-50
2022/12/06 16:36:55;;;;;;;3.95;2.40;;;;;;;23.05;29.88;101703.75;5072012;28;20028;-46
2022/12/06 16:39:24;;;;;;;4.47;2.65;;;;;;;23.07;29.92;101706.41;5053389;28;20033;-48
2022/12/06 16:41:52;;;;;;;3.78;2.50;;;;;;;23.08;30.29;101707.31;5054352;28;20492;-46
2022/12/06 16:44:21;;;;;;;3.92;2.28;;;;;;;23.10;29.86;101701.28;5075081;28;20033;-51
2022/12/06 16:46:49;;;;;;;5.90;2.70;;;;;;;23.05;30.02;101697.63;5075512;28;20060;-47
2022/12/06 16:49:20;;;;;;;5.82;3.10;;;;;;;23.00;30.36;101699.25;5074989;28;20517;-47
2022/12/06 16:51:49;;;;;;;4.13;2.67;;;;;;;22.99;30.12;101697.47;5075348;28;20102;-48
2022/12/06 16:54:17;;;;;;;3.90;2.33;;;;;;;22.99;30.41;101702.72;5075402;28;20020;-47
2022/12/06 16:56:46;;;;;;;2.55;1.95;;;;;;;23.01;30.47;101701.91;5058472;28;20111;-46
2022/12/06 16:59:17;;;;;;;4.35;2.30;;;;;;;23.01;30.36;101703.59;5075345;28;20024;-49
2022/12/06 17:01:51;;;;;;;3.17;2.22;;;;;;;23.02;30.14;101708.00;5075688;28;20064;-46
2022/12/06 17:04:20;;;;;;;2.90;2.38;;;;;;;23.01;30.16;101707.13;5058303;28;20025;-47
2022/12/06 17:06:49;;;;;;;3.33;2.33;;;;;;;22.99;29.90;101697.47;5076165;28;20401;-47
2022/12/06 17:09:18;;;;;;;2.88;2.13;;;;;;;23.07;30.08;101714.25;5058322;28;20103;-47
2022/12/06 17:12:05;;;;;;;3.85;2.25;;;;;;;23.08;30.07;101717.78;5075911;28;20020;-45
2022/12/06 17:14:34;;;;;;;3.10;2.35;;;;;;;23.08;30.15;101721.28;5075811;28;20029;-46
2022/12/06 17:17:03;;;;;;;2.95;2.30;;;;;;;23.04;30.36;101727.25;5075882;28;20363;-46
2022/12/06 17:19:33;;;;;;;5.28;2.30;;;;;;;23.02;30.10;101726.31;5075936;28;20074;-46
2022/12/06 17:22:02;;;;;;;3.35;2.05;;;;;;;23.01;30.17;101733.28;5075512;28;20497;-45
2022/12/06 17:24:29;;;;;;;5.10;2.03;;;;;;;23.00;30.36;101734.13;5078225;28;20123;-45
2022/12/06 17:26:57;;;;;;;2.92;2.22;;;;;;;22.99;30.58;101739.34;5076262;28;20092;-46
2022/12/06 17:29:26;;;;;;;6.60;2.92;;;;;;;22.97;30.59;101747.13;5074886;28;20036;-47
2022/12/06 17:31:53;;;;;;;3.63;2.63;;;;;;;23.03;30.45;101749.03;5074611;28;20036;-51
2022/12/06 17:34:24;;;;;;;6.50;3.33;;;;;;;23.05;30.36;101757.81;5074312;28;20029;-45
2022/12/06 17:36:51;;;;;;;7.90;3.42;;;;;;;23.02;30.32;101753.38;5075093;28;20025;-47
2022/12/06 17:39:21;;;;;;;4.45;2.97;;;;;;;23.04;30.20;101756.03;5056945;28;20107;-46
2022/12/06 17:44:38;;;;;;;3.25;2.05;;;;;;;23.08;30.40;101764.88;5066075;28;20044;-47
2022/12/06 17:47:06;;;;;;;4.18;2.70;;;;;;;23.06;30.58;101762.22;5074374;28;20080;-48
2022/12/06 17:49:35;;;;;;;6.90;2.47;;;;;;;23.08;30.51;101777.97;5074686;28;20067;-46
2022/12/06 17:52:02;;;;;;;4.03;2.40;;;;;;;23.12;30.16;101772.88;5056717;28;20473;-45
2022/12/06 17:54:31;;;;;;;3.40;2.55;;;;;;;23.14;30.54;101781.66;5058820;28;20036;-45
2022/12/06 17:56:58;;;;;;;3.45;2.33;;;;;;;23.11;30.45;101781.56;5056384;28;20381;-47
2022/12/06 17:59:30;;;;;;;5.57;2.67;;;;;;;23.11;30.48;101786.81;5056357;28;20029;-48
2022/12/06 18:01:59;;;;;;;2.95;2.35;;;;;;;23.16;30.27;101782.59;5074291;28;20036;-51
2022/12/06 18:04:28;;;;;;;2.97;2.20;;;;;;;23.16;30.47;101777.38;5039310;28;20067;-46
2022/12/06 18:06:56;;;;;;;3.30;2.38;;;;;;;23.18;30.40;101774.78;5074024;28;20077;-51
2022/12/06 18:09:24;;;;;;;3.67;2.47;;;;;;;23.18;30.10;101774.78;5073815;28;20041;-48
2022/12/06 18:11:52;;;;;;;3.38;2.28;;;;;;;23.19;30.13;101776.56;5074150;28;20028;-47
2022/12/06 18:14:20;;;;;;;2.53;1.95;;;;;;;23.13;30.33;101784.22;5073656;28;20021;-45
2022/12/06 18:16:47;;;;;;;3.25;2.50;;;;;;;23.16;30.25;101790.44;5073888;28;20111;-50
2022/12/06 18:19:19;;;;;;;3.60;2.05;;;;;;;23.15;30.26;101793.00;5074092;28;20032;-45
2022/12/06 18:21:46;;;;;;;2.72;2.10;;;;;;;23.14;30.18;101792.13;5073322;28;20048;-46
2022/12/06 18:24:17;;;;;;;3.75;2.60;;;;;;;23.22;29.93;101789.78;5073101;28;20025;-46
2022/12/06 18:26:44;;;;;;;4.57;2.08;;;;;;;23.18;30.57;101799.22;5056464;28;20040;-51
2022/12/06 18:29:18;;;;;;;3.13;2.30;;;;;;;23.18;30.09;101804.44;5074134;28;20469;-45
2022/12/06 18:31:46;;;;;;;2.85;2.00;;;;;;;23.17;30.25;101796.56;5073754;28;20403;-45
2022/12/06 18:34:14;;;;;;;6.07;2.13;;;;;;;23.20;30.03;101797.56;5076982;28;20029;-46
2022/12/06 18:36:42;;;;;;;6.78;2.13;;;;;;;23.25;30.17;101799.44;5073583;28;20448;-45
2022/12/06 18:39:13;;;;;;;3.65;2.30;;;;;;;23.20;30.61;101788.81;5073563;28;20024;-45
2022/12/06 18:41:43;;;;;;;5.25;2.67;;;;;;;23.15;30.33;101795.63;5077489;28;20032;-45
2022/12/06 18:44:11;;;;;;;6.95;3.20;;;;;;;23.14;30.42;101792.13;5072756;28;20489;-45
2022/12/06 18:46:41;;;;;;;12.50;3.83;;;;;;;23.12;30.85;101785.06;5059995;28;20031;-46
2022/12/06 18:49:10;;;;;;;11.45;5.53;;;;;;;23.12;30.61;101790.28;5073587;28;20070;-46
2022/12/06 18:51:39;;;;;;;15.73;5.80;;;;;;;23.11;30.63;101797.28;5055776;28;20085;-46
2022/12/06 18:54:08;;;;;;;21.15;6.45;;;;;;;23.13;30.80;101800.81;5072822;28;20029;-45
2022/12/06 18:56:36;;;;;;;17.30;6.03;;;;;;;23.13;30.71;101800.81;5072660;28;20111;-46
2022/12/06 18:59:07;;;;;;;15.80;6.45;;;;;;;23.14;31.24;101799.06;5073028;28;20025;-46
2022/12/06 19:01:37;;;;;;;20.52;7.45;;;;;;;23.10;30.93;101803.34;5038605;28;20123;-46
2022/12/06 19:04:08;;;;;;;21.17;7.55;;;;;;;23.15;31.01;101812.22;5072486;28;20039;-46
2022/12/06 19:06:37;;;;;;;34.97;11.60;;;;;;;23.14;31.08;101810.44;5072091;28;20052;-47
2022/12/06 19:09:08;;;;;;;41.60;11.93;;;;;;;23.14;31.59;101810.44;5072516;28;20039;-46
2022/12/06 19:11:38;;;;;;;39.90;13.27;;;;;;;23.17;31.47;101814.88;5073030;28;20083;-46
2022/12/06 19:14:07;;;;;;;50.80;14.13;;;;;;;23.25;31.61;101815.13;5073011;28;20043;-47
2022/12/06 19:16:37;;;;;;;43.10;14.43;;;;;;;23.21;31.22;101804.56;5071728;28;20496;-45
2022/12/06 19:19:07;;;;;;;47.70;14.25;;;;;;;23.26;31.61;101812.56;5072988;28;20500;-47
2022/12/06 19:21:35;;;;;;;53.65;16.05;;;;;;;23.26;31.29;101809.94;5072135;28;20056;-46
2022/12/06 19:24:04;;;;;;;46.65;13.88;;;;;;;23.23;31.38;101801.13;5071806;28;20123;-46
2022/12/06 19:26:33;;;;;;;39.83;13.25;;;;;;;23.23;31.43;101807.25;5072087;28;20040;-45
2022/12/06 19:29:01;;;;;;;43.10;13.48;;;;;;;23.20;31.64;101822.81;5072665;28;20028;-46
2022/12/06 19:31:30;;;;;;;37.67;12.60;;;;;;;23.17;31.47;101812.25;5073450;28;20031;-47
2022/12/06 19:33:58;;;;;;;35.78;12.25;;;;;;;23.10;31.79;101805.97;5072222;28;20029;-46
2022/12/06 19:36:29;;;;;;;46.63;12.82;;;;;;;23.20;31.68;101831.59;5072977;28;20024;-46
2022/12/06 19:39:00;;;;;;;40.03;12.40;;;;;;;23.23;31.71;101832.53;5073040;28;20040;-45
2022/12/06 19:41:29;;;;;;;37.97;11.75;;;;;;;23.22;31.88;101829.03;5072823;28;20055;-47
2022/12/06 19:44:16;;;;;;;32.95;11.15;;;;;;;23.25;31.64;101839.56;5073120;28;20035;-46
2022/12/06 19:46:46;;;;;;;31.50;10.50;;;;;;;23.25;31.61;101839.56;5072704;28;20020;-46
2022/12/06 19:49:16;;;;;;;34.47;10.48;;;;;;;23.16;31.44;101837.56;5072813;28;20060;-49
2022/12/06 19:51:45;;;;;;;30.33;9.63;;;;;;;23.24;31.45;101844.78;5055236;28;20507;-46
2022/12/06 19:54:18;;;;;;;29.67;9.90;;;;;;;23.26;31.66;101843.09;5073254;28;20085;-47
2022/12/06 19:56:48;;;;;;;24.42;9.10;;;;;;;23.25;31.28;101850.03;5073004;28;20056;-46
2022/12/06 19:59:16;;;;;;;27.75;9.30;;;;;;;23.26;31.68;101845.72;5072676;28;20082;-46
2022/12/06 20:01:46;;;;;;;22.52;8.25;;;;;;;23.27;31.21;101848.38;5072284;28;20064;-48
2022/12/06 20:04:18;;;;;;;32.67;8.85;;;;;;;23.27;31.54;101848.38;5073280;28;20020;-46
2022/12/06 20:06:46;;;;;;;24.08;8.18;;;;;;;23.31;31.19;101841.50;5072310;28;20047;-46
2022/12/06 20:09:15;;;;;;;22.95;7.45;;;;;;;23.28;31.13;101846.66;5072892;28;20035;-45
2022/12/06 20:12:04;;;;;;;15.45;7.03;;;;;;;23.29;31.43;101845.81;5055228;28;20046;-47
2022/12/06 20:14:43;;;;;;;17.25;6.88;;;;;;;23.26;31.19;101851.81;5072565;28;20028;-46